Time;durP1;ratioP1;P1;durP2;ratioP2;P2;SDS_P1;SDS_P2;PMS_P1;PMS_P2;Temp;Humidity;BMP_temperature;BMP_pressure;BME280_temperature;BME280_humidity;BME280_pressure;Samples;Min_cycle;Max_cycle;Signal;HPM_P1;HPM_P2
2022/09/15 00:01:51;;;;;;;18.05;10.88;;;;;;;-145.50;100.00;65435.88;5060327;28;20056;-62
2022/09/15 00:04:17;;;;;;;15.95;9.98;;;;;;;-145.50;100.00;65435.88;5062270;28;20056;-61
2022/09/15 00:06:44;;;;;;;16.90;10.73;;;;;;;-145.50;100.00;65435.88;5063889;28;20150;-61
2022/09/15 00:09:10;;;;;;;18.33;10.85;;;;;;;-145.50;100.00;65435.88;5061894;28;20528;-60
2022/09/15 00:11:37;;;;;;;19.05;11.32;;;;;;;-145.50;100.00;65435.88;5070592;28;20101;-60
2022/09/15 00:14:05;;;;;;;19.15;11.80;;;;;;;-145.50;100.00;65435.88;5068133;28;20043;-61
2022/09/15 00:16:32;;;;;;;22.30;11.57;;;;;;;-145.50;100.00;65435.88;5056924;28;20497;-62
2022/09/15 00:18:59;;;;;;;18.38;11.68;;;;;;;-145.50;100.00;65435.88;5072897;28;20044;-61
2022/09/15 00:21:32;;;;;;;17.25;11.43;;;;;;;-145.50;100.00;65435.88;5052209;28;20060;-61
2022/09/15 00:23:59;;;;;;;28.20;13.20;;;;;;;-145.50;100.00;65435.88;5063372;28;20079;-62
2022/09/15 00:26:29;;;;;;;19.98;11.88;;;;;;;-145.50;100.00;65435.88;5056391;28;20155;-62
2022/09/15 00:28:57;;;;;;;19.40;12.15;;;;;;;-145.50;100.00;65435.88;5060258;28;20043;-60
2022/09/15 00:31:25;;;;;;;18.80;12.50;;;;;;;-145.50;100.00;65435.88;5066871;28;20048;-62
2022/09/15 00:33:54;;;;;;;18.83;12.07;;;;;;;-145.50;100.00;65435.88;5058513;28;20048;-61
2022/09/15 00:36:22;;;;;;;16.30;10.77;;;;;;;-145.50;100.00;65435.88;5054613;28;20076;-61
2022/09/15 00:38:49;;;;;;;16.48;11.40;;;;;;;-145.50;100.00;65435.88;5051930;28;20053;-62
2022/09/15 00:41:18;;;;;;;18.75;12.02;;;;;;;-145.50;100.00;65435.88;5058954;28;20102;-61
2022/09/15 00:43:53;;;;;;;21.58;11.32;;;;;;;-145.50;100.00;65435.88;5061030;28;20462;-62
2022/09/15 00:46:29;;;;;;;21.35;11.85;;;;;;;-145.50;100.00;65435.88;5063060;28;20044;-62
2022/09/15 00:49:04;;;;;;;26.80;13.30;;;;;;;-145.50;100.00;65435.88;5053298;28;20052;-61
2022/09/15 00:51:36;;;;;;;20.73;12.60;;;;;;;-145.50;100.00;65435.88;5062851;28;20070;-62
2022/09/15 00:54:15;;;;;;;19.40;12.88;;;;;;;-145.50;100.00;65435.88;5061745;28;20638;-62
2022/09/15 00:56:44;;;;;;;19.13;12.30;;;;;;;-145.50;100.00;65435.88;5050083;28;20053;-61
2022/09/15 00:59:15;;;;;;;22.02;12.70;;;;;;;-145.50;100.00;65435.88;5064943;28;20078;-61
2022/09/15 01:01:42;;;;;;;20.80;13.57;;;;;;;-145.50;100.00;65435.88;5060372;28;20093;-62
2022/09/15 01:04:09;;;;;;;19.75;14.00;;;;;;;-145.50;100.00;65435.88;5065698;28;20396;-61
2022/09/15 01:06:44;;;;;;;19.80;13.38;;;;;;;-145.50;100.00;65435.88;5060321;28;20604;-62
2022/09/15 01:09:19;;;;;;;19.88;13.55;;;;;;;-145.50;100.00;65435.88;5060549;28;20129;-60
2022/09/15 01:11:45;;;;;;;20.58;12.13;;;;;;;-145.50;100.00;65435.88;5057308;28;20056;-61
2022/09/15 01:14:12;;;;;;;17.88;12.70;;;;;;;-145.50;100.00;65435.88;5069628;28;20211;-61
2022/09/15 01:17:14;;;;;;;20.80;12.65;;;;;;;-145.50;100.00;65435.88;5065928;28;20056;-62
2022/09/15 01:20:07;;;;;;;18.20;11.63;;;;;;;-145.50;100.00;65435.88;5067679;28;20657;-61
2022/09/15 01:22:42;;;;;;;22.17;12.20;;;;;;;-145.50;100.00;65435.88;5053401;28;20044;-61
2022/09/15 01:25:29;;;;;;;16.95;12.13;;;;;;;-145.50;100.00;65435.88;5059445;28;20055;-62
2022/09/15 01:28:33;;;;;;;19.48;9.98;;;;;;;-145.50;100.00;65435.88;5058244;28;20044;-62
2022/09/15 01:31:08;;;;;;;17.15;11.80;;;;;;;-145.50;100.00;65435.88;5054780;28;20472;-63
2022/09/15 01:33:42;;;;;;;19.35;11.68;;;;;;;-145.50;100.00;65435.88;5074058;28;20580;-60
2022/09/15 01:36:34;;;;;;;19.10;10.75;;;;;;;-145.50;100.00;65435.88;5054080;28;20101;-61
2022/09/15 01:39:17;;;;;;;18.05;11.07;;;;;;;-145.50;100.00;65435.88;5056141;28;20056;-61
2022/09/15 01:41:59;;;;;;;20.20;10.93;;;;;;;-145.50;100.00;65435.88;5057196;28;20059;-61
2022/09/15 01:44:31;;;;;;;15.30;10.70;;;;;;;-145.50;100.00;65435.88;5067236;28;20061;-61
2022/09/15 01:47:04;;;;;;;16.58;10.82;;;;;;;-145.50;100.00;65435.88;5070462;28;20037;-61
2022/09/15 01:49:43;;;;;;;16.55;10.23;;;;;;;-145.50;100.00;65435.88;5061593;28;20126;-61
2022/09/15 01:52:13;;;;;;;18.75;11.40;;;;;;;-145.50;100.00;65435.88;5053243;28;20106;-61
2022/09/15 01:54:47;;;;;;;18.13;10.50;;;;;;;-145.50;100.00;65435.88;5067790;28;20053;-60
2022/09/15 01:57:20;;;;;;;20.38;10.15;;;;;;;-145.50;100.00;65435.88;5061081;28;20753;-62
2022/09/15 01:59:50;;;;;;;17.23;9.35;;;;;;;-145.50;100.00;65435.88;5064359;28;20056;-61
2022/09/15 02:02:24;;;;;;;19.88;10.57;;;;;;;-145.50;100.00;65435.88;5067129;28;20170;-61
2022/09/15 02:04:57;;;;;;;17.77;10.63;;;;;;;-145.50;100.00;65435.88;5052520;28;20130;-61
2022/09/15 02:07:34;;;;;;;16.83;10.77;;;;;;;-145.50;100.00;65435.88;5061287;28;20056;-62
2022/09/15 02:10:13;;;;;;;16.13;11.32;;;;;;;-145.50;100.00;65435.88;5058628;28;20068;-61
2022/09/15 02:12:52;;;;;;;17.23;11.18;;;;;;;-145.50;100.00;65435.88;5064443;28;20060;-62
2022/09/15 02:15:29;;;;;;;14.93;10.65;;;;;;;-145.50;100.00;65435.88;5064835;28;20086;-61
2022/09/15 02:17:57;;;;;;;18.95;10.57;;;;;;;-145.50;100.00;65435.88;5069831;28;20045;-61
2022/09/15 02:20:37;;;;;;;18.33;10.93;;;;;;;-145.50;100.00;65435.88;5066040;28;20052;-61
2022/09/15 02:23:08;;;;;;;18.50;11.43;;;;;;;-145.50;100.00;65435.88;5056499;28;20052;-61
2022/09/15 02:25:43;;;;;;;18.42;11.13;;;;;;;-145.50;100.00;65435.88;5075362;28;20556;-60
2022/09/15 02:28:12;;;;;;;15.75;11.48;;;;;;;-145.50;100.00;65435.88;5066815;28;20076;-62
2022/09/15 02:30:41;;;;;;;18.92;11.50;;;;;;;-145.50;100.00;65435.88;5062238;28;20074;-62
2022/09/15 02:33:18;;;;;;;13.80;10.05;;;;;;;-145.50;100.00;65435.88;5050193;28;20493;-62
2022/09/15 02:35:45;;;;;;;14.35;9.07;;;;;;;-145.50;100.00;65435.88;5062130;28;20084;-61
2022/09/15 02:38:13;;;;;;;21.17;11.43;;;;;;;-145.50;100.00;65435.88;5058181;28;20098;-61
2022/09/15 02:40:42;;;;;;;18.42;10.32;;;;;;;-145.50;100.00;65435.88;5062023;28;20078;-62
2022/09/15 02:43:14;;;;;;;16.83;10.52;;;;;;;-145.50;100.00;65435.88;5053055;28;20392;-61
2022/09/15 02:45:41;;;;;;;21.15;10.77;;;;;;;-145.50;100.00;65435.88;5055211;28;20060;-62
2022/09/15 02:48:08;;;;;;;19.48;10.93;;;;;;;-145.50;100.00;65435.88;5063691;28;20070;-62
2022/09/15 02:50:35;;;;;;;18.55;10.30;;;;;;;-145.50;100.00;65435.88;5058128;28;20052;-62
2022/09/15 02:53:03;;;;;;;18.83;10.60;;;;;;;-145.50;100.00;65435.88;5065927;28;20047;-62
2022/09/15 02:55:29;;;;;;;14.82;10.38;;;;;;;-145.50;100.00;65435.88;5063307;28;20485;-62
2022/09/15 02:57:56;;;;;;;17.52;10.57;;;;;;;-145.50;100.00;65435.88;5055068;28;20500;-62
2022/09/15 03:00:23;;;;;;;16.67;9.98;;;;;;;-145.50;100.00;65435.88;5055569;28;20044;-61
2022/09/15 03:02:52;;;;;;;15.38;9.10;;;;;;;-145.50;100.00;65435.88;5062605;28;20048;-57
2022/09/15 03:05:26;;;;;;;;;;;;;;;-145.50;100.00;65435.88;5059963;28;20060;-59
2022/09/15 03:07:53;;;;;;;14.30;9.60;;;;;;;-145.50;100.00;65435.88;5057924;28;20379;-58
2022/09/15 03:10:20;;;;;;;14.77;8.93;;;;;;;-145.50;100.00;65435.88;5067476;28;20769;-61
2022/09/15 03:12:49;;;;;;;15.13;8.95;;;;;;;-145.50;100.00;65435.88;5058124;28;20101;-62
2022/09/15 03:15:19;;;;;;;12.73;8.18;;;;;;;-145.50;100.00;65435.88;5069757;28;20097;-62
2022/09/15 03:17:46;;;;;;;13.32;8.63;;;;;;;-145.50;100.00;65435.88;5063425;28;20052;-62
2022/09/15 03:20:16;;;;;;;15.60;8.55;;;;;;;-145.50;100.00;65435.88;5065118;28;20113;-61
2022/09/15 03:22:43;;;;;;;12.13;8.48;;;;;;;-145.50;100.00;65435.88;5053865;28;20700;-62
2022/09/15 03:25:10;;;;;;;16.23;9.30;;;;;;;-145.50;100.00;65435.88;5059218;28;20072;-62
2022/09/15 03:27:37;;;;;;;15.43;8.93;;;;;;;-145.50;100.00;65435.88;5057996;28;20881;-62
2022/09/15 03:30:05;;;;;;;13.02;8.20;;;;;;;-145.50;100.00;65435.88;5056655;28;20049;-61
2022/09/15 03:32:31;;;;;;;12.38;8.13;;;;;;;-145.50;100.00;65435.88;5069223;28;20044;-62
2022/09/15 03:34:58;;;;;;;13.55;7.95;;;;;;;-145.50;100.00;65435.88;5055194;28;20650;-62
2022/09/15 03:37:24;;;;;;;12.52;7.90;;;;;;;-145.50;100.00;65435.88;5070923;28;20440;-61
2022/09/15 03:39:51;;;;;;;17.92;8.18;;;;;;;-145.50;100.00;65435.88;5048469;28;20700;-61
2022/09/15 03:42:18;;;;;;;9.18;7.07;;;;;;;-145.50;100.00;65435.88;5060836;28;20040;-62
2022/09/15 03:44:45;;;;;;;14.68;7.25;;;;;;;-145.50;100.00;65435.88;5056986;28;20056;-60
2022/09/15 03:47:11;;;;;;;16.35;8.15;;;;;;;-145.50;100.00;65435.88;5056370;28;20048;-62
2022/09/15 03:49:38;;;;;;;11.73;7.20;;;;;;;-145.50;100.00;65435.88;5067063;28;20044;-60
2022/09/15 03:52:04;;;;;;;11.10;7.07;;;;;;;-145.50;100.00;65435.88;5064386;28;20055;-61
2022/09/15 03:54:31;;;;;;;10.32;6.78;;;;;;;-145.50;100.00;65435.88;5055705;28;20045;-61
2022/09/15 03:56:57;;;;;;;11.60;7.10;;;;;;;-145.50;100.00;65435.88;5055160;28;20591;-57
2022/09/15 03:59:24;;;;;;;18.15;7.68;;;;;;;-145.50;100.00;65435.88;5065376;28;20567;-60
2022/09/15 04:01:50;;;;;;;13.90;6.82;;;;;;;-145.50;100.00;65435.88;5064503;28;20052;-61
2022/09/15 04:04:17;;;;;;;13.68;7.45;;;;;;;-145.50;100.00;65435.88;5058805;28;20071;-61
2022/09/15 04:06:43;;;;;;;11.52;7.32;;;;;;;-145.50;100.00;65435.88;5058832;28;20060;-62
2022/09/15 04:09:10;;;;;;;12.27;7.88;;;;;;;-145.50;100.00;65435.88;5050333;28;20523;-61
2022/09/15 04:11:37;;;;;;;11.68;7.00;;;;;;;-145.50;100.00;65435.88;5063338;28;20106;-61
2022/09/15 04:14:03;;;;;;;15.25;7.70;;;;;;;-145.50;100.00;65435.88;5056789;28;20048;-60
2022/09/15 04:16:29;;;;;;;10.85;7.28;;;;;;;-145.50;100.00;65435.88;5058176;28;20060;-61
2022/09/15 04:18:56;;;;;;;10.75;6.70;;;;;;;-145.50;100.00;65435.88;5066294;28;20089;-62
2022/09/15 04:21:25;;;;;;;10.88;7.05;;;;;;;-145.50;100.00;65435.88;5052312;28;20049;-62
2022/09/15 04:23:52;;;;;;;12.38;7.45;;;;;;;-145.50;100.00;65435.88;5058307;28;20052;-62
2022/09/15 04:26:27;;;;;;;13.50;7.43;;;;;;;-145.50;100.00;65435.88;5059150;28;20036;-63
2022/09/15 04:28:53;;;;;;;12.63;6.47;;;;;;;-145.50;100.00;65435.88;5061285;28;20048;-63
2022/09/15 04:31:20;;;;;;;12.52;7.15;;;;;;;-145.50;100.00;65435.88;5062791;28;20056;-61
2022/09/15 04:33:47;;;;;;;13.52;7.43;;;;;;;-145.50;100.00;65435.88;5063548;28;20798;-60
2022/09/15 04:36:17;;;;;;;12.23;7.60;;;;;;;-145.50;100.00;65435.88;5068343;28;20055;-60
2022/09/15 04:38:44;;;;;;;11.63;7.00;;;;;;;-145.50;100.00;65435.88;5052903;28;20056;-62
2022/09/15 04:41:11;;;;;;;13.38;7.32;;;;;;;-145.50;100.00;65435.88;5075675;28;20048;-62
2022/09/15 04:43:38;;;;;;;12.32;7.30;;;;;;;-145.50;100.00;65435.88;5060942;28;20109;-62
2022/09/15 04:46:05;;;;;;;10.30;6.80;;;;;;;-145.50;100.00;65435.88;5070822;28;20101;-61
2022/09/15 04:48:31;;;;;;;10.82;6.43;;;;;;;-145.50;100.00;65435.88;5056017;28;20467;-61
2022/09/15 04:51:06;;;;;;;14.15;6.70;;;;;;;-145.50;100.00;65435.88;5063092;28;20052;-60
2022/09/15 04:53:33;;;;;;;10.73;6.30;;;;;;;-145.50;100.00;65435.88;5068456;28;20047;-61
2022/09/15 04:56:04;;;;;;;11.35;5.63;;;;;;;-145.50;100.00;65435.88;5059117;28;20739;-61
2022/09/15 04:58:38;;;;;;;11.55;5.60;;;;;;;-145.50;100.00;65435.88;5075544;28;20036;-61
2022/09/15 05:01:11;;;;;;;9.93;5.63;;;;;;;-145.50;100.00;65435.88;5062494;28;20440;-62
2022/09/15 05:03:38;;;;;;;6.80;5.07;;;;;;;-145.50;100.00;65435.88;5059630;28;20040;-62
2022/09/15 05:06:06;;;;;;;11.18;5.60;;;;;;;-145.50;100.00;65435.88;5066418;28;20049;-61
2022/09/15 05:08:33;;;;;;;9.15;5.07;;;;;;;-145.50;100.00;65435.88;5066036;28;20409;-62
2022/09/15 05:11:01;;;;;;;11.40;5.15;;;;;;;-145.50;100.00;65435.88;5071340;28;20850;-60
2022/09/15 05:13:28;;;;;;;;;;;;;;;-145.50;100.00;65435.88;5066883;28;20056;-61
2022/09/15 05:15:54;;;;;;;8.00;4.50;;;;;;;-145.50;100.00;65435.88;5073219;28;19921;-62
2022/09/15 05:18:20;;;;;;;9.43;4.90;;;;;;;-145.50;100.00;65435.88;5053108;28;20048;-62
2022/09/15 05:20:47;;;;;;;11.27;5.00;;;;;;;-145.50;100.00;65435.88;5063868;28;20106;-62
2022/09/15 05:23:13;;;;;;;10.77;4.65;;;;;;;-145.50;100.00;65435.88;5062111;28;20402;-62
2022/09/15 05:25:39;;;;;;;13.40;4.30;;;;;;;-145.50;100.00;65435.88;5063818;28;20621;-63
2022/09/15 05:28:06;;;;;;;12.43;4.57;;;;;;;-145.50;100.00;65435.88;5072004;28;20086;-62
2022/09/15 05:30:33;;;;;;;13.65;4.45;;;;;;;-145.50;100.00;65435.88;5063747;28;20097;-61
2022/09/15 05:33:06;;;;;;;8.45;3.97;;;;;;;-145.50;100.00;65435.88;5071522;28;20126;-63
2022/09/15 05:35:33;;;;;;;13.57;3.75;;;;;;;-145.50;100.00;65435.88;5060348;28;20045;-61
2022/09/15 05:37:59;;;;;;;6.10;3.75;;;;;;;-145.50;100.00;65435.88;5073607;28;20044;-61
2022/09/15 05:40:26;;;;;;;12.25;4.13;;;;;;;-145.50;100.00;65435.88;5061486;28;20741;-61
2022/09/15 05:42:52;;;;;;;6.50;3.47;;;;;;;-145.50;100.00;65435.88;5071468;28;20048;-62
2022/09/15 05:45:19;;;;;;;8.73;3.53;;;;;;;-145.50;100.00;65435.88;5054775;28;20048;-62
2022/09/15 05:47:45;;;;;;;6.75;3.30;;;;;;;-145.50;100.00;65435.88;5059596;28;20492;-62
2022/09/15 05:50:13;;;;;;;14.27;3.13;;;;;;;-145.50;100.00;65435.88;5064545;28;20080;-60
2022/09/15 05:52:39;;;;;;;5.13;2.72;;;;;;;-145.50;100.00;65435.88;5058774;28;20723;-62
2022/09/15 05:55:07;;;;;;;10.10;3.33;;;;;;;-145.50;100.00;65435.88;5063036;28;20084;-60
2022/09/15 05:57:33;;;;;;;7.63;2.72;;;;;;;-145.50;100.00;65435.88;5057787;28;20053;-61
2022/09/15 05:59:59;;;;;;;9.82;3.75;;;;;;;-145.50;100.00;65435.88;5060223;28;20067;-61
2022/09/15 06:02:26;;;;;;;7.03;3.13;;;;;;;-145.50;100.00;65435.88;5063721;28;20110;-62
2022/09/15 06:04:52;;;;;;;8.48;3.33;;;;;;;-145.50;100.00;65435.88;5064761;28;20102;-61
2022/09/15 06:07:19;;;;;;;9.13;3.42;;;;;;;-145.50;100.00;65435.88;5063683;28;20104;-62
2022/09/15 06:09:45;;;;;;;12.70;3.50;;;;;;;-145.50;100.00;65435.88;5053349;28;20082;-61
2022/09/15 06:12:11;;;;;;;7.32;3.28;;;;;;;-145.50;100.00;65435.88;5064153;28;20148;-61
2022/09/15 06:14:38;;;;;;;8.18;3.63;;;;;;;-145.50;100.00;65435.88;5055921;28;20056;-61
2022/09/15 06:17:04;;;;;;;10.68;3.92;;;;;;;-145.50;100.00;65435.88;5074853;28;20044;-61
2022/09/15 06:19:32;;;;;;;7.05;3.33;;;;;;;-145.50;100.00;65435.88;5062171;28;20064;-61
2022/09/15 06:21:58;;;;;;;6.80;3.25;;;;;;;-145.50;100.00;65435.88;5071728;28;20482;-61
2022/09/15 06:24:24;;;;;;;9.25;3.13;;;;;;;-145.50;100.00;65435.88;5061955;28;20158;-62
2022/09/15 06:26:51;;;;;;;5.63;2.97;;;;;;;-145.50;100.00;65435.88;5064699;28;20084;-61
2022/09/15 06:29:17;;;;;;;6.22;2.63;;;;;;;-145.50;100.00;65435.88;5043659;28;20057;-62
2022/09/15 06:31:43;;;;;;;11.55;3.05;;;;;;;-145.50;100.00;65435.88;5057686;28;20091;-61
2022/09/15 06:34:10;;;;;;;5.10;2.70;;;;;;;-145.50;100.00;65435.88;5068438;28;20064;-61
2022/09/15 06:36:37;;;;;;;6.50;2.45;;;;;;;-145.50;100.00;65435.88;5064811;28;20048;-59
2022/09/15 06:39:04;;;;;;;6.82;2.88;;;;;;;-145.50;100.00;65435.88;5065972;28;20489;-62
2022/09/15 06:41:30;;;;;;;6.60;3.08;;;;;;;-145.50;100.00;65435.88;5056347;28;20048;-63
2022/09/15 06:44:18;;;;;;;5.70;3.53;;;;;;;-145.50;100.00;65435.88;5056317;28;20155;-58
2022/09/15 06:46:44;;;;;;;7.00;3.22;;;;;;;-145.50;100.00;65435.88;5069325;28;20052;-61
2022/09/15 06:49:11;;;;;;;10.68;3.70;;;;;;;-145.50;100.00;65435.88;5056066;28;20109;-61
2022/09/15 06:51:37;;;;;;;8.02;3.30;;;;;;;-145.50;100.00;65435.88;5064626;28;20052;-62
2022/09/15 06:54:04;;;;;;;15.20;3.75;;;;;;;-145.50;100.00;65435.88;5058071;28;20052;-62
2022/09/15 06:56:32;;;;;;;9.52;2.58;;;;;;;-145.50;100.00;65435.88;5054008;28;20056;-62
2022/09/15 06:59:03;;;;;;;9.98;2.92;;;;;;;-145.50;100.00;65435.88;5064195;28;20127;-61
2022/09/15 07:01:31;;;;;;;9.18;2.63;;;;;;;-145.50;100.00;65435.88;5054096;28;20048;-60
2022/09/15 07:03:59;;;;;;;11.82;3.22;;;;;;;-145.50;100.00;65435.88;5061941;28;20435;-61
2022/09/15 07:06:28;;;;;;;7.03;2.40;;;;;;;-145.50;100.00;65435.88;5051976;28;20585;-62
2022/09/15 07:08:54;;;;;;;5.78;2.67;;;;;;;-145.50;100.00;65435.88;5063310;28;20071;-62
2022/09/15 07:11:21;;;;;;;6.75;2.75;;;;;;;-145.50;100.00;65435.88;5070961;28;20040;-62
2022/09/15 07:13:50;;;;;;;6.05;2.40;;;;;;;-145.50;100.00;65435.88;5062082;28;20102;-63
2022/09/15 07:16:18;;;;;;;6.63;2.38;;;;;;;-145.50;100.00;65435.88;5068025;28;20598;-62
2022/09/15 07:18:46;;;;;;;8.23;2.50;;;;;;;-145.50;100.00;65435.88;5057577;28;20048;-62
2022/09/15 07:21:16;;;;;;;7.07;2.50;;;;;;;-145.50;100.00;65435.88;5058507;28;20052;-62
2022/09/15 07:23:42;;;;;;;9.02;2.85;;;;;;;-145.50;100.00;65435.88;5048177;28;20045;-61
2022/09/15 07:26:15;;;;;;;4.90;2.45;;;;;;;-145.50;100.00;65435.88;5072035;28;20053;-61
2022/09/15 07:28:44;;;;;;;5.30;2.53;;;;;;;-145.50;100.00;65435.88;5063569;28;20052;-62
2022/09/15 07:31:14;;;;;;;7.45;2.40;;;;;;;-145.50;100.00;65435.88;5057709;28;20103;-62
2022/09/15 07:33:40;;;;;;;8.55;2.60;;;;;;;-145.50;100.00;65435.88;5064230;28;20064;-62
2022/09/15 07:36:08;;;;;;;5.82;2.30;;;;;;;-145.50;100.00;65435.88;5051265;28;20044;-61
2022/09/15 07:38:39;;;;;;;6.95;2.03;;;;;;;-145.50;100.00;65435.88;5060408;28;20070;-62
2022/09/15 07:41:26;;;;;;;7.28;2.40;;;;;;;-145.50;100.00;65435.88;5056001;28;20060;-61
2022/09/15 07:43:55;;;;;;;9.85;2.58;;;;;;;-145.50;100.00;65435.88;5062619;28;20048;-61
2022/09/15 07:46:24;;;;;;;7.55;2.42;;;;;;;-145.50;100.00;65435.88;5050477;28;20149;-60
2022/09/15 07:48:55;;;;;;;4.88;2.40;;;;;;;-145.50;100.00;65435.88;5057646;28;20102;-58
2022/09/15 07:51:21;;;;;;;6.65;2.20;;;;;;;-145.50;100.00;65435.88;5056274;28;20048;-60
2022/09/15 07:53:49;;;;;;;6.90;2.22;;;;;;;-145.50;100.00;65435.88;5057547;28;20098;-62
2022/09/15 07:56:17;;;;;;;5.90;1.77;;;;;;;-145.50;100.00;65435.88;5059599;28;20097;-61
2022/09/15 07:58:44;;;;;;;;;;;;;;;-145.50;100.00;65435.88;5061752;28;20051;-62
2022/09/15 08:01:13;;;;;;;8.63;1.65;;;;;;;-145.50;100.00;65435.88;5059022;28;20426;-62
2022/09/15 08:03:44;;;;;;;7.03;1.55;;;;;;;-145.50;100.00;65435.88;5052023;28;20723;-61
2022/09/15 08:06:11;;;;;;;4.90;1.42;;;;;;;-145.50;100.00;65435.88;5059774;28;20044;-60
2022/09/15 08:08:38;;;;;;;5.63;1.13;;;;;;;-145.50;100.00;65435.88;5071618;28;20509;-61
2022/09/15 08:11:07;;;;;;;7.53;1.30;;;;;;;-145.50;100.00;65435.88;5060651;28;20044;-60
2022/09/15 08:13:34;;;;;;;11.20;1.63;;;;;;;-145.50;100.00;65435.88;5061944;28;20047;-61
2022/09/15 08:16:07;;;;;;;7.10;1.33;;;;;;;-145.50;100.00;65435.88;5059425;28;20045;-61
2022/09/15 08:18:35;;;;;;;5.68;1.08;;;;;;;-145.50;100.00;65435.88;5058835;28;20390;-61
2022/09/15 08:21:10;;;;;;;7.10;1.10;;;;;;;-145.50;100.00;65435.88;5059241;28;20116;-60
2022/09/15 08:23:37;;;;;;;6.10;1.40;;;;;;;-145.50;100.00;65435.88;5067528;28;20078;-63
2022/09/15 08:26:08;;;;;;;6.78;1.40;;;;;;;-145.50;100.00;65435.88;5058017;28;20084;-62
2022/09/15 08:28:40;;;;;;;7.40;1.50;;;;;;;-145.50;100.00;65435.88;5065533;28;20044;-62
2022/09/15 08:31:08;;;;;;;10.88;1.77;;;;;;;-145.50;100.00;65435.88;5065434;28;20129;-62
2022/09/15 08:33:35;;;;;;;6.97;1.67;;;;;;;-145.50;100.00;65435.88;5045830;28;20040;-62
2022/09/15 08:36:04;;;;;;;8.07;1.60;;;;;;;-145.50;100.00;65435.88;5063477;28;20048;-63
2022/09/15 08:38:31;;;;;;;8.52;1.60;;;;;;;-145.50;100.00;65435.88;5060662;28;20084;-62
2022/09/15 08:41:05;;;;;;;6.28;1.65;;;;;;;-145.50;100.00;65435.88;5065501;28;20048;-62
2022/09/15 08:43:49;;;;;;;7.40;1.58;;;;;;;-145.50;100.00;65435.88;5057375;28;20049;-62
2022/09/15 08:46:21;;;;;;;7.65;1.40;;;;;;;-145.50;100.00;65435.88;5058499;28;20056;-62
2022/09/15 08:48:57;;;;;;;8.95;2.00;;;;;;;-145.50;100.00;65435.88;5062315;28;20075;-62
2022/09/15 08:51:36;;;;;;;5.63;1.42;;;;;;;-145.50;100.00;65435.88;5061535;28;20052;-62
2022/09/15 08:54:10;;;;;;;4.53;1.42;;;;;;;-145.50;100.00;65435.88;5066221;28;20056;-61
2022/09/15 08:56:38;;;;;;;6.63;1.55;;;;;;;-145.50;100.00;65435.88;5038193;28;20045;-61
2022/09/15 08:59:05;;;;;;;;;;;;;;;-145.50;100.00;65435.88;5057915;28;20106;-62
2022/09/15 09:01:41;;;;;;;7.68;1.13;;;;;;;-145.50;100.00;65435.88;5051149;28;20441;-63
2022/09/15 09:04:28;;;;;;;7.72;1.15;;;;;;;-145.50;100.00;65435.88;5060127;28;20086;-69
2022/09/15 09:07:06;;;;;;;6.27;1.40;;;;;;;-145.50;100.00;65435.88;5057434;28;20052;-63
2022/09/15 09:09:51;;;;;;;;;;;;;;;-145.50;100.00;65435.88;5061117;28;20044;-62
2022/09/15 09:12:31;;;;;;;8.82;1.45;;;;;;;-145.50;100.00;65435.88;5048103;28;19967;-62
2022/09/15 09:15:28;;;;;;;5.22;1.40;;;;;;;-145.50;100.00;65435.88;5054749;28;20079;-63
2022/09/15 09:18:13;;;;;;;4.43;1.13;;;;;;;-145.50;100.00;65435.88;5045894;28;20049;-62
2022/09/15 09:21:25;;;;;;;6.40;0.90;;;;;;;-145.50;100.00;65435.88;5066949;28;20110;-63
2022/09/15 09:23:57;;;;;;;4.25;0.88;;;;;;;-145.50;100.00;65435.88;5047428;28;20048;-62
2022/09/15 09:26:24;;;;;;;5.22;1.25;;;;;;;-145.50;100.00;65435.88;5067011;28;20083;-63
2022/09/15 09:28:53;;;;;;;3.93;0.93;;;;;;;-145.50;100.00;65435.88;5072400;28;20044;-65
2022/09/15 09:31:23;;;;;;;8.23;1.08;;;;;;;-145.50;100.00;65435.88;5056096;28;20083;-63
2022/09/15 09:34:17;;;;;;;5.20;1.15;;;;;;;-145.50;100.00;65435.88;5061891;28;20053;-63
2022/09/15 09:36:43;;;;;;;7.35;1.13;;;;;;;-145.50;100.00;65435.88;5052940;28;20508;-62
2022/09/15 09:39:14;;;;;;;3.47;0.90;;;;;;;-145.50;100.00;65435.88;5057277;28;20056;-62
2022/09/15 09:41:41;;;;;;;4.85;0.90;;;;;;;-145.50;100.00;65435.88;5050851;28;20173;-62
2022/09/15 09:44:13;;;;;;;6.63;1.20;;;;;;;-145.50;100.00;65435.88;5061916;28;20109;-63
2022/09/15 09:46:40;;;;;;;6.30;1.20;;;;;;;-145.50;100.00;65435.88;5058480;28;20749;-63
2022/09/15 09:49:23;;;;;;;5.53;1.70;;;;;;;-145.50;100.00;65435.88;5071764;28;20048;-62
2022/09/15 09:51:58;;;;;;;8.50;1.83;;;;;;;-145.50;100.00;65435.88;5056412;28;20635;-62
2022/09/15 09:54:27;;;;;;;3.92;0.77;;;;;;;-145.50;100.00;65435.88;5058974;28;20048;-62
2022/09/15 09:57:15;;;;;;;4.53;1.05;;;;;;;-145.50;100.00;65435.88;5064750;28;20056;-62
2022/09/15 09:59:43;;;;;;;;;;;;;;;-145.50;100.00;65435.88;5060203;28;20052;-63
2022/09/15 10:02:09;;;;;;;4.35;0.80;;;;;;;-145.50;100.00;65435.88;5063663;28;19931;-62
2022/09/15 10:04:44;;;;;;;5.13;1.15;;;;;;;-145.50;100.00;65435.88;5059798;28;20052;-63
2022/09/15 10:07:11;;;;;;;4.15;0.90;;;;;;;-145.50;100.00;65435.88;5052776;28;20068;-63
2022/09/15 10:09:38;;;;;;;5.35;1.05;;;;;;;-145.50;100.00;65435.88;5052692;28;20041;-63
2022/09/15 10:12:06;;;;;;;7.05;0.85;;;;;;;-145.50;100.00;65435.88;5065109;28;20057;-63
2022/09/15 10:14:40;;;;;;;5.85;1.50;;;;;;;-145.50;100.00;65435.88;5069626;28;20051;-62
2022/09/15 10:17:17;;;;;;;4.07;0.98;;;;;;;-145.50;100.00;65435.88;5070521;28;20055;-62
2022/09/15 10:19:46;;;;;;;5.50;1.00;;;;;;;-145.50;100.00;65435.88;5070412;28;20052;-63
2022/09/15 10:22:33;;;;;;;3.10;0.80;;;;;;;-145.50;100.00;65435.88;5054452;28;20044;-62
2022/09/15 10:25:02;;;;;;;4.80;0.90;;;;;;;-145.50;100.00;65435.88;5062650;28;20450;-64
2022/09/15 10:27:32;;;;;;;5.05;1.00;;;;;;;-145.50;100.00;65435.88;5060828;28;20055;-63
2022/09/15 10:30:17;;;;;;;4.40;0.98;;;;;;;-145.50;100.00;65435.88;5060921;28;20044;-62
2022/09/15 10:32:43;;;;;;;4.57;0.90;;;;;;;-145.50;100.00;65435.88;5063665;28;20130;-64
2022/09/15 10:35:13;;;;;;;3.45;0.85;;;;;;;-145.50;100.00;65435.88;5063247;28;20060;-62
2022/09/15 10:37:49;;;;;;;5.43;0.70;;;;;;;-145.50;100.00;65435.88;5061312;28;20083;-64
2022/09/15 10:40:26;;;;;;;7.03;1.92;;;;;;;-145.50;100.00;65435.88;5065196;28;20053;-64
2022/09/15 10:43:02;;;;;;;3.22;1.00;;;;;;;-145.50;100.00;65435.88;5068640;28;20052;-64
2022/09/15 10:45:31;;;;;;;4.28;1.13;;;;;;;-145.50;100.00;65435.88;5057177;28;20102;-63
2022/09/15 10:48:13;;;;;;;5.68;1.02;;;;;;;-145.50;100.00;65435.88;5060807;28;20722;-62
2022/09/15 10:50:53;;;;;;;5.90;1.10;;;;;;;-145.50;100.00;65435.88;5054459;28;20057;-64
2022/09/15 10:53:50;;;;;;;4.63;1.00;;;;;;;-145.50;100.00;65435.88;5064492;28;20045;-63
2022/09/15 10:56:37;;;;;;;4.25;0.90;;;;;;;-145.50;100.00;65435.88;5054761;28;20079;-62
2022/09/15 10:59:22;;;;;;;4.88;0.80;;;;;;;-145.50;100.00;65435.88;5063300;28;20102;-63
2022/09/15 11:02:22;;;;;;;3.25;0.75;;;;;;;-145.50;100.00;65435.88;5052693;28;21723;-63
2022/09/15 11:05:12;;;;;;;4.40;0.75;;;;;;;-145.50;100.00;65435.88;5061004;28;20055;-63
2022/09/15 11:07:39;;;;;;;4.28;0.73;;;;;;;-145.50;100.00;65435.88;5058733;28;20109;-61
2022/09/15 11:10:19;;;;;;;1.52;0.50;;;;;;;-145.50;100.00;65435.88;5068334;28;20638;-63
2022/09/15 11:12:56;;;;;;;4.70;0.90;;;;;;;-145.50;100.00;65435.88;5058758;28;20052;-62
2022/09/15 11:15:28;;;;;;;2.90;0.82;;;;;;;-145.50;100.00;65435.88;5053963;28;20048;-62
2022/09/15 11:18:33;;;;;;;4.32;0.75;;;;;;;-145.50;100.00;65435.88;5055539;28;20105;-63
2022/09/15 11:21:20;;;;;;;3.42;0.73;;;;;;;-145.50;100.00;65435.88;5069592;28;20471;-63
2022/09/15 11:24:01;;;;;;;2.42;0.68;;;;;;;-145.50;100.00;65435.88;5056509;28;20052;-62